Burlington, Vermont
Current Conditions -  °F | °C
As of 9:54 AM on Friday 31 Oct 2014 (Local Time) from KBTV Reporting Station
Broken Clouds Broken Clouds  
Wind Chill:   Ceiling: 20000
Heat Index:   Visibility: 10mi
Dew Point:   Wind: 3mph
Humidity: 68%   Direction: 10°N
Pressure: 30.06"   Gusts: NA
Location:  44.48°N, 73.21°W
Report Text: KBTV 311354Z 01003KT 10SM FEW075 BKN200 06/01 A3006 RMK AO2 SLP183 T00610006
Loading
Personal Weather Stations






























Interactive Weather Map
Tropical Storm Tracking
New forecast layout! Learn more

10-Day Weather Forecast

Advertisements
Track Severe Weather on mobile